sensor_id;sensor_type;location;lat;lon;timestamp;P1;durP1;ratioP1;P2;durP2;ratioP2
59950;SDS011;45812;53.540;9.774;2024-01-07T00:01:25;2.40;;;1.63;;
59950;SDS011;45812;53.540;9.774;2024-01-07T00:03:51;1.48;;;1.38;;
59950;SDS011;45812;53.540;9.774;2024-01-07T00:06:17;3.65;;;2.03;;
59950;SDS011;45812;53.540;9.774;2024-01-07T00:08:42;4.30;;;1.98;;
59950;SDS011;45812;53.540;9.774;2024-01-07T00:11:07;2.65;;;2.03;;
59950;SDS011;45812;53.540;9.774;2024-01-07T00:13:32;1.73;;;1.40;;
59950;SDS011;45812;53.540;9.774;2024-01-07T00:15:57;3.22;;;1.92;;
59950;SDS011;45812;53.540;9.774;2024-01-07T00:18:23;3.80;;;2.03;;
59950;SDS011;45812;53.540;9.774;2024-01-07T00:20:49;2.25;;;1.65;;
59950;SDS011;45812;53.540;9.774;2024-01-07T00:23:14;6.35;;;1.40;;
59950;SDS011;45812;53.540;9.774;2024-01-07T00:25:39;2.13;;;1.42;;
59950;SDS011;45812;53.540;9.774;2024-01-07T00:28:05;4.13;;;2.03;;
59950;SDS011;45812;53.540;9.774;2024-01-07T00:30:30;3.97;;;1.40;;
59950;SDS011;45812;53.540;9.774;2024-01-07T00:32:55;4.85;;;2.00;;
59950;SDS011;45812;53.540;9.774;2024-01-07T00:35:20;4.32;;;1.77;;
59950;SDS011;45812;53.540;9.774;2024-01-07T00:37:46;1.70;;;1.60;;
59950;SDS011;45812;53.540;9.774;2024-01-07T00:40:11;3.22;;;1.95;;
59950;SDS011;45812;53.540;9.774;2024-01-07T00:42:37;4.13;;;2.45;;
59950;SDS011;45812;53.540;9.774;2024-01-07T00:45:02;5.75;;;1.77;;
59950;SDS011;45812;53.540;9.774;2024-01-07T00:47:27;2.72;;;1.75;;
59950;SDS011;45812;53.540;9.774;2024-01-07T00:49:53;5.30;;;1.65;;
59950;SDS011;45812;53.540;9.774;2024-01-07T00:52:18;5.45;;;2.05;;
59950;SDS011;45812;53.540;9.774;2024-01-07T00:54:43;3.35;;;1.88;;
59950;SDS011;45812;53.540;9.774;2024-01-07T00:57:10;3.35;;;1.88;;
59950;SDS011;45812;53.540;9.774;2024-01-07T00:59:36;4.20;;;1.77;;
59950;SDS011;45812;53.540;9.774;2024-01-07T01:02:01;4.47;;;2.50;;
59950;SDS011;45812;53.540;9.774;2024-01-07T01:04:26;2.50;;;1.75;;
59950;SDS011;45812;53.540;9.774;2024-01-07T01:06:52;4.85;;;2.05;;
59950;SDS011;45812;53.540;9.774;2024-01-07T01:09:17;4.57;;;2.30;;
59950;SDS011;45812;53.540;9.774;2024-01-07T01:11:42;4.20;;;1.83;;
59950;SDS011;45812;53.540;9.774;2024-01-07T01:14:07;5.25;;;2.10;;
59950;SDS011;45812;53.540;9.774;2024-01-07T01:16:32;6.57;;;2.15;;
59950;SDS011;45812;53.540;9.774;2024-01-07T01:18:58;4.60;;;1.80;;
59950;SDS011;45812;53.540;9.774;2024-01-07T01:21:23;3.78;;;1.52;;
59950;SDS011;45812;53.540;9.774;2024-01-07T01:23:48;4.00;;;1.35;;
59950;SDS011;45812;53.540;9.774;2024-01-07T01:26:14;2.53;;;1.98;;
59950;SDS011;45812;53.540;9.774;2024-01-07T01:28:40;3.35;;;2.40;;
59950;SDS011;45812;53.540;9.774;2024-01-07T01:31:05;2.72;;;1.90;;
59950;SDS011;45812;53.540;9.774;2024-01-07T01:33:30;3.38;;;2.17;;
59950;SDS011;45812;53.540;9.774;2024-01-07T01:35:56;3.75;;;1.95;;
59950;SDS011;45812;53.540;9.774;2024-01-07T01:38:21;4.18;;;2.05;;
59950;SDS011;45812;53.540;9.774;2024-01-07T01:40:52;3.30;;;2.05;;
59950;SDS011;45812;53.540;9.774;2024-01-07T01:43:24;4.05;;;2.17;;
59950;SDS011;45812;53.540;9.774;2024-01-07T01:45:50;2.92;;;2.05;;
59950;SDS011;45812;53.540;9.774;2024-01-07T01:48:17;2.67;;;1.60;;
59950;SDS011;45812;53.540;9.774;2024-01-07T01:50:42;2.30;;;1.55;;
59950;SDS011;45812;53.540;9.774;2024-01-07T01:53:07;2.65;;;1.67;;
59950;SDS011;45812;53.540;9.774;2024-01-07T01:55:33;4.22;;;1.80;;
59950;SDS011;45812;53.540;9.774;2024-01-07T01:57:58;3.75;;;1.45;;
59950;SDS011;45812;53.540;9.774;2024-01-07T02:00:28;3.28;;;1.58;;
59950;SDS011;45812;53.540;9.774;2024-01-07T02:02:54;1.48;;;1.13;;
59950;SDS011;45812;53.540;9.774;2024-01-07T02:05:19;3.92;;;2.13;;
59950;SDS011;45812;53.540;9.774;2024-01-07T02:07:44;6.47;;;1.95;;
59950;SDS011;45812;53.540;9.774;2024-01-07T02:10:09;5.47;;;2.40;;
59950;SDS011;45812;53.540;9.774;2024-01-07T02:12:35;4.38;;;1.65;;
59950;SDS011;45812;53.540;9.774;2024-01-07T02:15:00;5.07;;;2.17;;
59950;SDS011;45812;53.540;9.774;2024-01-07T02:17:25;2.47;;;1.65;;
59950;SDS011;45812;53.540;9.774;2024-01-07T02:19:51;2.78;;;1.85;;
59950;SDS011;45812;53.540;9.774;2024-01-07T02:22:16;7.15;;;2.30;;
59950;SDS011;45812;53.540;9.774;2024-01-07T02:24:43;2.00;;;1.55;;
59950;SDS011;45812;53.540;9.774;2024-01-07T02:27:09;2.45;;;1.48;;
59950;SDS011;45812;53.540;9.774;2024-01-07T02:29:34;3.45;;;1.83;;
59950;SDS011;45812;53.540;9.774;2024-01-07T02:31:59;2.17;;;1.48;;
59950;SDS011;45812;53.540;9.774;2024-01-07T02:34:24;1.50;;;1.40;;
59950;SDS011;45812;53.540;9.774;2024-01-07T02:36:50;3.80;;;2.10;;
59950;SDS011;45812;53.540;9.774;2024-01-07T02:39:15;4.00;;;1.67;;
59950;SDS011;45812;53.540;9.774;2024-01-07T02:41:40;2.80;;;1.85;;
59950;SDS011;45812;53.540;9.774;2024-01-07T02:44:06;3.50;;;1.58;;
59950;SDS011;45812;53.540;9.774;2024-01-07T02:46:31;2.47;;;1.65;;
59950;SDS011;45812;53.540;9.774;2024-01-07T02:48:56;1.30;;;1.20;;
59950;SDS011;45812;53.540;9.774;2024-01-07T02:51:21;1.83;;;1.20;;
59950;SDS011;45812;53.540;9.774;2024-01-07T02:53:46;2.90;;;1.73;;
59950;SDS011;45812;53.540;9.774;2024-01-07T02:56:12;5.50;;;2.28;;
59950;SDS011;45812;53.540;9.774;2024-01-07T02:58:37;2.70;;;1.38;;
59950;SDS011;45812;53.540;9.774;2024-01-07T03:01:02;3.92;;;1.35;;
59950;SDS011;45812;53.540;9.774;2024-01-07T03:03:33;5.25;;;2.00;;
59950;SDS011;45812;53.540;9.774;2024-01-07T03:05:58;3.97;;;2.20;;
59950;SDS011;45812;53.540;9.774;2024-01-07T03:08:23;2.78;;;1.88;;
59950;SDS011;45812;53.540;9.774;2024-01-07T03:10:48;2.47;;;1.63;;
59950;SDS011;45812;53.540;9.774;2024-01-07T03:13:14;2.88;;;1.52;;
59950;SDS011;45812;53.540;9.774;2024-01-07T03:15:39;3.92;;;1.38;;
59950;SDS011;45812;53.540;9.774;2024-01-07T03:18:04;1.75;;;1.42;;
59950;SDS011;45812;53.540;9.774;2024-01-07T03:20:30;5.43;;;1.80;;
59950;SDS011;45812;53.540;9.774;2024-01-07T03:22:55;4.07;;;1.40;;
59950;SDS011;45812;53.540;9.774;2024-01-07T03:25:20;2.20;;;1.30;;
59950;SDS011;45812;53.540;9.774;2024-01-07T03:27:45;2.65;;;1.40;;
59950;SDS011;45812;53.540;9.774;2024-01-07T03:30:11;2.05;;;1.70;;
59950;SDS011;45812;53.540;9.774;2024-01-07T03:32:36;1.63;;;1.13;;
59950;SDS011;45812;53.540;9.774;2024-01-07T03:35:02;2.78;;;1.70;;
59950;SDS011;45812;53.540;9.774;2024-01-07T03:37:27;2.17;;;1.63;;
59950;SDS011;45812;53.540;9.774;2024-01-07T03:39:53;3.03;;;1.65;;
59950;SDS011;45812;53.540;9.774;2024-01-07T03:42:18;3.03;;;1.60;;
59950;SDS011;45812;53.540;9.774;2024-01-07T03:44:44;3.60;;;1.33;;
59950;SDS011;45812;53.540;9.774;2024-01-07T03:47:09;3.30;;;1.73;;
59950;SDS011;45812;53.540;9.774;2024-01-07T03:49:37;5.78;;;1.90;;
59950;SDS011;45812;53.540;9.774;2024-01-07T03:52:04;2.42;;;1.50;;
59950;SDS011;45812;53.540;9.774;2024-01-07T03:54:30;1.60;;;1.50;;
59950;SDS011;45812;53.540;9.774;2024-01-07T03:56:56;7.95;;;1.60;;
59950;SDS011;45812;53.540;9.774;2024-01-07T03:59:21;1.50;;;1.35;;
59950;SDS011;45812;53.540;9.774;2024-01-07T04:01:48;2.10;;;1.67;;
59950;SDS011;45812;53.540;9.774;2024-01-07T04:04:13;1.65;;;1.05;;
59950;SDS011;45812;53.540;9.774;2024-01-07T04:06:38;3.17;;;1.30;;
59950;SDS011;45812;53.540;9.774;2024-01-07T04:09:04;4.47;;;1.92;;
59950;SDS011;45812;53.540;9.774;2024-01-07T04:11:29;1.38;;;1.20;;
59950;SDS011;45812;53.540;9.774;2024-01-07T04:13:54;1.65;;;1.20;;
59950;SDS011;45812;53.540;9.774;2024-01-07T04:16:20;7.10;;;1.60;;
59950;SDS011;45812;53.540;9.774;2024-01-07T04:18:45;2.15;;;1.45;;
59950;SDS011;45812;53.540;9.774;2024-01-07T04:21:11;4.00;;;1.40;;
59950;SDS011;45812;53.540;9.774;2024-01-07T04:23:40;3.03;;;1.40;;
59950;SDS011;45812;53.540;9.774;2024-01-07T04:26:06;0.90;;;0.82;;
59950;SDS011;45812;53.540;9.774;2024-01-07T04:28:32;1.40;;;1.30;;
59950;SDS011;45812;53.540;9.774;2024-01-07T04:30:57;4.07;;;1.90;;
59950;SDS011;45812;53.540;9.774;2024-01-07T04:33:22;4.82;;;1.35;;
59950;SDS011;45812;53.540;9.774;2024-01-07T04:35:48;1.65;;;1.20;;
59950;SDS011;45812;53.540;9.774;2024-01-07T04:38:13;1.88;;;1.20;;
59950;SDS011;45812;53.540;9.774;2024-01-07T04:40:39;0.88;;;0.88;;
59950;SDS011;45812;53.540;9.774;2024-01-07T04:43:04;4.65;;;1.20;;
59950;SDS011;45812;53.540;9.774;2024-01-07T04:45:29;3.13;;;1.17;;
59950;SDS011;45812;53.540;9.774;2024-01-07T04:47:54;3.50;;;1.00;;
59950;SDS011;45812;53.540;9.774;2024-01-07T04:50:20;1.10;;;0.93;;
59950;SDS011;45812;53.540;9.774;2024-01-07T04:52:45;1.35;;;1.13;;
59950;SDS011;45812;53.540;9.774;2024-01-07T04:55:11;1.02;;;0.80;;
59950;SDS011;45812;53.540;9.774;2024-01-07T04:57:36;1.42;;;1.33;;
59950;SDS011;45812;53.540;9.774;2024-01-07T05:00:02;1.63;;;0.82;;
59950;SDS011;45812;53.540;9.774;2024-01-07T05:02:28;2.53;;;0.77;;
59950;SDS011;45812;53.540;9.774;2024-01-07T05:04:53;1.67;;;0.82;;
59950;SDS011;45812;53.540;9.774;2024-01-07T05:07:19;1.05;;;0.95;;
59950;SDS011;45812;53.540;9.774;2024-01-07T05:09:44;0.47;;;0.47;;
59950;SDS011;45812;53.540;9.774;2024-01-07T05:12:09;3.47;;;1.08;;
59950;SDS011;45812;53.540;9.774;2024-01-07T05:14:35;1.02;;;0.82;;
59950;SDS011;45812;53.540;9.774;2024-01-07T05:17:03;1.23;;;1.05;;
59950;SDS011;45812;53.540;9.774;2024-01-07T05:19:29;1.00;;;1.00;;
59950;SDS011;45812;53.540;9.774;2024-01-07T05:21:54;0.88;;;0.80;;
59950;SDS011;45812;53.540;9.774;2024-01-07T05:24:20;1.00;;;0.73;;
59950;SDS011;45812;53.540;9.774;2024-01-07T05:26:45;1.58;;;1.42;;
59950;SDS011;45812;53.540;9.774;2024-01-07T05:29:10;13.88;;;1.10;;
59950;SDS011;45812;53.540;9.774;2024-01-07T05:31:37;3.65;;;1.27;;
59950;SDS011;45812;53.540;9.774;2024-01-07T05:34:03;3.78;;;0.88;;
59950;SDS011;45812;53.540;9.774;2024-01-07T05:36:28;0.90;;;0.57;;
59950;SDS011;45812;53.540;9.774;2024-01-07T05:38:53;4.85;;;1.48;;
59950;SDS011;45812;53.540;9.774;2024-01-07T05:41:19;1.75;;;0.80;;
59950;SDS011;45812;53.540;9.774;2024-01-07T05:43:44;1.67;;;0.80;;
59950;SDS011;45812;53.540;9.774;2024-01-07T05:46:09;1.17;;;1.08;;
59950;SDS011;45812;53.540;9.774;2024-01-07T05:48:47;8.10;;;1.42;;
59950;SDS011;45812;53.540;9.774;2024-01-07T05:51:13;1.13;;;1.02;;
59950;SDS011;45812;53.540;9.774;2024-01-07T05:53:39;5.10;;;1.20;;
59950;SDS011;45812;53.540;9.774;2024-01-07T05:56:05;1.27;;;0.50;;
59950;SDS011;45812;53.540;9.774;2024-01-07T05:58:30;2.40;;;0.85;;
59950;SDS011;45812;53.540;9.774;2024-01-07T06:00:56;0.98;;;0.77;;
59950;SDS011;45812;53.540;9.774;2024-01-07T06:03:21;3.65;;;1.15;;
59950;SDS011;45812;53.540;9.774;2024-01-07T06:05:46;1.45;;;0.90;;
59950;SDS011;45812;53.540;9.774;2024-01-07T06:08:11;2.90;;;1.08;;
59950;SDS011;45812;53.540;9.774;2024-01-07T06:10:38;1.27;;;1.00;;
59950;SDS011;45812;53.540;9.774;2024-01-07T06:13:03;2.20;;;1.00;;
59950;SDS011;45812;53.540;9.774;2024-01-07T06:15:29;3.72;;;1.08;;
59950;SDS011;45812;53.540;9.774;2024-01-07T06:17:54;2.00;;;1.40;;
59950;SDS011;45812;53.540;9.774;2024-01-07T06:20:20;3.65;;;1.13;;
59950;SDS011;45812;53.540;9.774;2024-01-07T06:22:45;3.10;;;1.25;;
59950;SDS011;45812;53.540;9.774;2024-01-07T06:25:10;1.75;;;1.17;;
59950;SDS011;45812;53.540;9.774;2024-01-07T06:27:37;4.68;;;0.90;;
59950;SDS011;45812;53.540;9.774;2024-01-07T06:30:03;3.85;;;1.45;;
59950;SDS011;45812;53.540;9.774;2024-01-07T06:32:29;2.85;;;1.25;;
59950;SDS011;45812;53.540;9.774;2024-01-07T06:34:56;3.85;;;1.77;;
59950;SDS011;45812;53.540;9.774;2024-01-07T06:37:21;1.50;;;0.80;;
59950;SDS011;45812;53.540;9.774;2024-01-07T06:39:47;1.25;;;1.15;;
59950;SDS011;45812;53.540;9.774;2024-01-07T06:42:12;5.07;;;1.77;;
59950;SDS011;45812;53.540;9.774;2024-01-07T06:44:37;2.90;;;1.55;;
59950;SDS011;45812;53.540;9.774;2024-01-07T06:47:02;4.13;;;1.58;;
59950;SDS011;45812;53.540;9.774;2024-01-07T06:49:28;2.95;;;1.15;;
59950;SDS011;45812;53.540;9.774;2024-01-07T06:51:53;1.30;;;1.20;;
59950;SDS011;45812;53.540;9.774;2024-01-07T06:54:18;2.00;;;1.48;;
59950;SDS011;45812;53.540;9.774;2024-01-07T06:56:43;3.35;;;1.10;;
59950;SDS011;45812;53.540;9.774;2024-01-07T06:59:09;2.30;;;1.33;;
59950;SDS011;45812;53.540;9.774;2024-01-07T07:01:35;3.60;;;1.38;;
59950;SDS011;45812;53.540;9.774;2024-01-07T07:04:00;4.40;;;1.83;;
59950;SDS011;45812;53.540;9.774;2024-01-07T07:06:25;3.50;;;1.40;;
59950;SDS011;45812;53.540;9.774;2024-01-07T07:08:51;3.75;;;2.03;;
59950;SDS011;45812;53.540;9.774;2024-01-07T07:11:16;2.15;;;1.55;;
59950;SDS011;45812;53.540;9.774;2024-01-07T07:13:41;2.75;;;1.60;;
59950;SDS011;45812;53.540;9.774;2024-01-07T07:16:06;5.13;;;1.42;;
59950;SDS011;45812;53.540;9.774;2024-01-07T07:18:32;5.03;;;2.22;;
59950;SDS011;45812;53.540;9.774;2024-01-07T07:20:58;4.80;;;2.15;;
59950;SDS011;45812;53.540;9.774;2024-01-07T07:23:23;4.18;;;2.28;;
59950;SDS011;45812;53.540;9.774;2024-01-07T07:25:48;4.35;;;1.67;;
59950;SDS011;45812;53.540;9.774;2024-01-07T07:28:13;4.22;;;1.73;;
59950;SDS011;45812;53.540;9.774;2024-01-07T07:30:39;4.05;;;2.30;;
59950;SDS011;45812;53.540;9.774;2024-01-07T07:33:04;3.45;;;2.17;;
59950;SDS011;45812;53.540;9.774;2024-01-07T07:35:29;4.43;;;2.53;;
59950;SDS011;45812;53.540;9.774;2024-01-07T07:37:55;4.85;;;2.05;;
59950;SDS011;45812;53.540;9.774;2024-01-07T07:40:20;5.15;;;2.33;;
59950;SDS011;45812;53.540;9.774;2024-01-07T07:42:45;3.35;;;2.10;;
59950;SDS011;45812;53.540;9.774;2024-01-07T07:45:11;3.80;;;2.35;;
59950;SDS011;45812;53.540;9.774;2024-01-07T07:47:36;4.70;;;2.08;;
59950;SDS011;45812;53.540;9.774;2024-01-07T07:50:01;3.97;;;2.45;;
59950;SDS011;45812;53.540;9.774;2024-01-07T07:52:27;4.30;;;2.83;;
59950;SDS011;45812;53.540;9.774;2024-01-07T07:54:52;5.63;;;2.78;;
59950;SDS011;45812;53.540;9.774;2024-01-07T07:57:18;6.07;;;2.38;;
59950;SDS011;45812;53.540;9.774;2024-01-07T07:59:45;6.25;;;2.45;;
59950;SDS011;45812;53.540;9.774;2024-01-07T08:02:10;4.45;;;2.42;;
59950;SDS011;45812;53.540;9.774;2024-01-07T08:04:36;3.20;;;2.22;;
59950;SDS011;45812;53.540;9.774;2024-01-07T08:07:01;2.53;;;2.15;;
59950;SDS011;45812;53.540;9.774;2024-01-07T08:09:27;6.72;;;3.20;;
59950;SDS011;45812;53.540;9.774;2024-01-07T08:11:52;5.22;;;2.33;;
59950;SDS011;45812;53.540;9.774;2024-01-07T08:14:17;4.05;;;2.50;;
59950;SDS011;45812;53.540;9.774;2024-01-07T08:16:42;3.83;;;2.15;;
59950;SDS011;45812;53.540;9.774;2024-01-07T08:19:08;6.53;;;2.50;;
59950;SDS011;45812;53.540;9.774;2024-01-07T08:21:33;4.30;;;2.45;;
59950;SDS011;45812;53.540;9.774;2024-01-07T08:23:58;9.07;;;3.95;;
59950;SDS011;45812;53.540;9.774;2024-01-07T08:26:23;6.07;;;2.28;;
59950;SDS011;45812;53.540;9.774;2024-01-07T08:28:49;4.40;;;2.50;;
59950;SDS011;45812;53.540;9.774;2024-01-07T08:31:14;6.30;;;2.80;;
59950;SDS011;45812;53.540;9.774;2024-01-07T08:33:39;3.75;;;2.50;;
59950;SDS011;45812;53.540;9.774;2024-01-07T08:36:05;6.18;;;2.58;;
59950;SDS011;45812;53.540;9.774;2024-01-07T08:38:30;6.18;;;2.50;;
59950;SDS011;45812;53.540;9.774;2024-01-07T08:40:55;3.33;;;2.42;;
59950;SDS011;45812;53.540;9.774;2024-01-07T08:43:21;5.82;;;2.05;;
59950;SDS011;45812;53.540;9.774;2024-01-07T08:45:46;3.83;;;2.33;;
59950;SDS011;45812;53.540;9.774;2024-01-07T08:48:12;3.97;;;2.15;;
59950;SDS011;45812;53.540;9.774;2024-01-07T08:50:37;6.03;;;2.97;;
59950;SDS011;45812;53.540;9.774;2024-01-07T08:53:03;4.70;;;2.42;;
59950;SDS011;45812;53.540;9.774;2024-01-07T08:55:28;3.47;;;2.42;;
59950;SDS011;45812;53.540;9.774;2024-01-07T08:57:53;5.82;;;3.30;;
59950;SDS011;45812;53.540;9.774;2024-01-07T09:00:19;7.97;;;2.67;;
59950;SDS011;45812;53.540;9.774;2024-01-07T09:02:44;3.60;;;2.50;;
59950;SDS011;45812;53.540;9.774;2024-01-07T09:05:09;8.27;;;2.33;;
59950;SDS011;45812;53.540;9.774;2024-01-07T09:07:36;6.00;;;2.40;;
59950;SDS011;45812;53.540;9.774;2024-01-07T09:10:02;4.10;;;2.47;;
59950;SDS011;45812;53.540;9.774;2024-01-07T09:12:27;4.65;;;2.65;;
59950;SDS011;45812;53.540;9.774;2024-01-07T09:14:53;2.65;;;1.85;;
59950;SDS011;45812;53.540;9.774;2024-01-07T09:17:18;2.33;;;1.90;;
59950;SDS011;45812;53.540;9.774;2024-01-07T09:19:43;2.78;;;2.33;;
59950;SDS011;45812;53.540;9.774;2024-01-07T09:22:09;3.60;;;2.10;;
59950;SDS011;45812;53.540;9.774;2024-01-07T09:24:34;4.68;;;2.60;;
59950;SDS011;45812;53.540;9.774;2024-01-07T09:26:59;3.13;;;2.35;;
59950;SDS011;45812;53.540;9.774;2024-01-07T09:29:24;7.55;;;2.88;;
59950;SDS011;45812;53.540;9.774;2024-01-07T09:31:50;6.25;;;2.55;;
59950;SDS011;45812;53.540;9.774;2024-01-07T09:34:15;4.93;;;2.95;;
59950;SDS011;45812;53.540;9.774;2024-01-07T09:36:40;5.65;;;2.30;;
59950;SDS011;45812;53.540;9.774;2024-01-07T09:39:05;3.95;;;2.28;;
59950;SDS011;45812;53.540;9.774;2024-01-07T09:41:31;2.65;;;2.22;;
59950;SDS011;45812;53.540;9.774;2024-01-07T09:43:57;4.05;;;2.33;;
59950;SDS011;45812;53.540;9.774;2024-01-07T09:46:24;8.65;;;2.25;;
59950;SDS011;45812;53.540;9.774;2024-01-07T09:48:49;2.30;;;1.90;;
59950;SDS011;45812;53.540;9.774;2024-01-07T09:51:14;2.45;;;2.20;;
59950;SDS011;45812;53.540;9.774;2024-01-07T09:53:43;8.43;;;2.55;;
59950;SDS011;45812;53.540;9.774;2024-01-07T09:56:12;2.40;;;2.00;;
59950;SDS011;45812;53.540;9.774;2024-01-07T09:58:48;2.70;;;1.92;;
59950;SDS011;45812;53.540;9.774;2024-01-07T10:01:15;5.10;;;2.65;;
59950;SDS011;45812;53.540;9.774;2024-01-07T10:03:42;2.90;;;1.70;;
59950;SDS011;45812;53.540;9.774;2024-01-07T10:06:07;6.10;;;2.60;;
59950;SDS011;45812;53.540;9.774;2024-01-07T10:08:32;6.60;;;2.10;;
59950;SDS011;45812;53.540;9.774;2024-01-07T10:10:58;3.80;;;1.83;;
59950;SDS011;45812;53.540;9.774;2024-01-07T10:13:23;5.45;;;2.15;;
59950;SDS011;45812;53.540;9.774;2024-01-07T10:15:48;4.18;;;2.17;;
59950;SDS011;45812;53.540;9.774;2024-01-07T10:18:14;4.43;;;2.33;;
59950;SDS011;45812;53.540;9.774;2024-01-07T10:20:39;2.38;;;2.03;;
59950;SDS011;45812;53.540;9.774;2024-01-07T10:23:04;6.57;;;2.20;;
59950;SDS011;45812;53.540;9.774;2024-01-07T10:25:30;2.67;;;2.03;;
59950;SDS011;45812;53.540;9.774;2024-01-07T10:28:00;3.42;;;2.17;;
59950;SDS011;45812;53.540;9.774;2024-01-07T10:30:26;4.15;;;2.33;;
59950;SDS011;45812;53.540;9.774;2024-01-07T10:32:55;6.90;;;2.85;;
59950;SDS011;45812;53.540;9.774;2024-01-07T10:35:22;5.97;;;2.60;;
59950;SDS011;45812;53.540;9.774;2024-01-07T10:37:54;3.70;;;2.00;;
59950;SDS011;45812;53.540;9.774;2024-01-07T10:40:19;4.45;;;1.73;;
59950;SDS011;45812;53.540;9.774;2024-01-07T10:42:45;3.72;;;1.90;;
59950;SDS011;45812;53.540;9.774;2024-01-07T10:45:11;5.20;;;2.17;;
59950;SDS011;45812;53.540;9.774;2024-01-07T10:47:37;4.50;;;2.15;;
59950;SDS011;45812;53.540;9.774;2024-01-07T10:50:06;4.20;;;2.00;;
59950;SDS011;45812;53.540;9.774;2024-01-07T10:52:35;4.07;;;2.50;;
59950;SDS011;45812;53.540;9.774;2024-01-07T10:55:04;3.35;;;1.60;;
59950;SDS011;45812;53.540;9.774;2024-01-07T10:57:34;5.60;;;2.25;;
59950;SDS011;45812;53.540;9.774;2024-01-07T11:00:08;4.15;;;2.03;;
59950;SDS011;45812;53.540;9.774;2024-01-07T11:05:37;2.42;;;1.80;;
59950;SDS011;45812;53.540;9.774;2024-01-07T11:08:11;1.85;;;1.30;;
59950;SDS011;45812;53.540;9.774;2024-01-07T11:10:44;3.95;;;1.80;;
59950;SDS011;45812;53.540;9.774;2024-01-07T11:13:33;3.92;;;1.95;;
59950;SDS011;45812;53.540;9.774;2024-01-07T11:16:03;2.75;;;1.60;;
59950;SDS011;45812;53.540;9.774;2024-01-07T11:18:30;3.35;;;2.15;;
59950;SDS011;45812;53.540;9.774;2024-01-07T11:20:59;5.47;;;1.90;;
59950;SDS011;45812;53.540;9.774;2024-01-07T11:23:32;5.10;;;2.00;;
59950;SDS011;45812;53.540;9.774;2024-01-07T11:25:59;3.60;;;1.77;;
59950;SDS011;45812;53.540;9.774;2024-01-07T11:31:10;4.55;;;1.85;;
59950;SDS011;45812;53.540;9.774;2024-01-07T11:33:36;3.17;;;2.10;;
59950;SDS011;45812;53.540;9.774;2024-01-07T11:36:02;2.63;;;2.28;;
59950;SDS011;45812;53.540;9.774;2024-01-07T11:38:28;6.25;;;2.65;;
59950;SDS011;45812;53.540;9.774;2024-01-07T11:40:54;4.38;;;2.60;;
59950;SDS011;45812;53.540;9.774;2024-01-07T11:43:20;6.78;;;3.13;;
59950;SDS011;45812;53.540;9.774;2024-01-07T11:45:46;6.90;;;3.40;;
59950;SDS011;45812;53.540;9.774;2024-01-07T11:48:12;6.75;;;2.78;;
59950;SDS011;45812;53.540;9.774;2024-01-07T11:50:37;3.30;;;2.55;;
59950;SDS011;45812;53.540;9.774;2024-01-07T11:53:03;6.25;;;2.38;;
59950;SDS011;45812;53.540;9.774;2024-01-07T11:55:29;6.28;;;2.38;;
59950;SDS011;45812;53.540;9.774;2024-01-07T11:57:57;3.22;;;2.40;;
59950;SDS011;45812;53.540;9.774;2024-01-07T12:00:22;2.95;;;2.30;;
59950;SDS011;45812;53.540;9.774;2024-01-07T12:02:48;5.65;;;2.65;;
59950;SDS011;45812;53.540;9.774;2024-01-07T12:05:13;3.35;;;2.28;;
59950;SDS011;45812;53.540;9.774;2024-01-07T12:07:40;7.07;;;1.90;;
59950;SDS011;45812;53.540;9.774;2024-01-07T12:10:09;3.80;;;2.55;;
59950;SDS011;45812;53.540;9.774;2024-01-07T12:12:41;4.60;;;2.00;;
59950;SDS011;45812;53.540;9.774;2024-01-07T12:15:10;3.70;;;2.15;;
59950;SDS011;45812;53.540;9.774;2024-01-07T12:17:38;2.95;;;1.90;;
59950;SDS011;45812;53.540;9.774;2024-01-07T12:20:04;4.07;;;1.98;;
59950;SDS011;45812;53.540;9.774;2024-01-07T12:22:30;2.58;;;1.90;;
59950;SDS011;45812;53.540;9.774;2024-01-07T12:25:07;4.43;;;2.30;;
59950;SDS011;45812;53.540;9.774;2024-01-07T12:27:33;5.00;;;2.67;;
59950;SDS011;45812;53.540;9.774;2024-01-07T12:30:00;4.25;;;2.42;;
59950;SDS011;45812;53.540;9.774;2024-01-07T12:32:26;5.65;;;2.50;;
59950;SDS011;45812;53.540;9.774;2024-01-07T12:34:52;4.50;;;2.30;;
59950;SDS011;45812;53.540;9.774;2024-01-07T12:37:17;3.95;;;2.08;;
59950;SDS011;45812;53.540;9.774;2024-01-07T12:39:43;3.75;;;2.03;;
59950;SDS011;45812;53.540;9.774;2024-01-07T12:42:08;4.70;;;2.33;;
59950;SDS011;45812;53.540;9.774;2024-01-07T12:44:34;3.70;;;2.10;;
59950;SDS011;45812;53.540;9.774;2024-01-07T12:47:01;7.78;;;2.05;;
59950;SDS011;45812;53.540;9.774;2024-01-07T12:49:27;3.47;;;1.75;;
59950;SDS011;45812;53.540;9.774;2024-01-07T12:51:52;2.27;;;2.00;;
59950;SDS011;45812;53.540;9.774;2024-01-07T12:54:17;3.50;;;2.20;;
59950;SDS011;45812;53.540;9.774;2024-01-07T12:56:44;2.38;;;1.95;;
59950;SDS011;45812;53.540;9.774;2024-01-07T12:59:09;3.87;;;2.03;;
59950;SDS011;45812;53.540;9.774;2024-01-07T13:01:34;5.57;;;2.10;;
59950;SDS011;45812;53.540;9.774;2024-01-07T13:04:01;2.78;;;1.92;;
59950;SDS011;45812;53.540;9.774;2024-01-07T13:06:27;2.38;;;1.58;;
59950;SDS011;45812;53.540;9.774;2024-01-07T13:08:52;3.15;;;1.73;;
59950;SDS011;45812;53.540;9.774;2024-01-07T13:11:17;2.65;;;1.80;;
59950;SDS011;45812;53.540;9.774;2024-01-07T13:13:43;3.70;;;2.30;;
59950;SDS011;45812;53.540;9.774;2024-01-07T13:16:08;3.70;;;1.90;;
59950;SDS011;45812;53.540;9.774;2024-01-07T13:18:33;5.63;;;2.35;;
59950;SDS011;45812;53.540;9.774;2024-01-07T13:20:58;2.43;;;2.07;;
59950;SDS011;45812;53.540;9.774;2024-01-07T13:23:24;2.60;;;1.70;;
59950;SDS011;45812;53.540;9.774;2024-01-07T13:25:51;4.60;;;1.85;;
59950;SDS011;45812;53.540;9.774;2024-01-07T13:28:16;2.57;;;1.53;;
59950;SDS011;45812;53.540;9.774;2024-01-07T13:30:41;2.00;;;1.83;;
59950;SDS011;45812;53.540;9.774;2024-01-07T13:33:07;2.97;;;2.28;;
59950;SDS011;45812;53.540;9.774;2024-01-07T13:35:33;3.10;;;1.67;;
59950;SDS011;45812;53.540;9.774;2024-01-07T13:37:58;2.38;;;1.77;;
59950;SDS011;45812;53.540;9.774;2024-01-07T13:40:23;1.83;;;1.58;;
59950;SDS011;45812;53.540;9.774;2024-01-07T13:42:48;2.77;;;1.90;;
59950;SDS011;45812;53.540;9.774;2024-01-07T13:45:16;1.90;;;1.55;;
59950;SDS011;45812;53.540;9.774;2024-01-07T13:47:44;3.85;;;1.73;;
59950;SDS011;45812;53.540;9.774;2024-01-07T13:50:10;3.25;;;1.70;;
59950;SDS011;45812;53.540;9.774;2024-01-07T13:52:35;2.08;;;1.20;;
59950;SDS011;45812;53.540;9.774;2024-01-07T13:55:00;2.13;;;1.17;;
59950;SDS011;45812;53.540;9.774;2024-01-07T13:57:25;4.82;;;1.38;;
59950;SDS011;45812;53.540;9.774;2024-01-07T13:59:51;2.83;;;1.50;;
59950;SDS011;45812;53.540;9.774;2024-01-07T14:02:17;2.10;;;1.50;;
59950;SDS011;45812;53.540;9.774;2024-01-07T14:04:44;3.55;;;1.52;;
59950;SDS011;45812;53.540;9.774;2024-01-07T14:07:09;1.85;;;1.67;;
59950;SDS011;45812;53.540;9.774;2024-01-07T14:09:35;2.53;;;1.15;;
59950;SDS011;45812;53.540;9.774;2024-01-07T14:12:00;2.80;;;1.75;;
59950;SDS011;45812;53.540;9.774;2024-01-07T14:14:27;3.40;;;1.50;;
59950;SDS011;45812;53.540;9.774;2024-01-07T14:16:52;2.67;;;1.02;;
59950;SDS011;45812;53.540;9.774;2024-01-07T14:19:17;1.95;;;1.45;;
59950;SDS011;45812;53.540;9.774;2024-01-07T14:21:43;1.60;;;1.50;;
59950;SDS011;45812;53.540;9.774;2024-01-07T14:24:08;1.40;;;1.30;;
59950;SDS011;45812;53.540;9.774;2024-01-07T14:26:33;2.23;;;1.73;;
59950;SDS011;45812;53.540;9.774;2024-01-07T14:28:58;2.30;;;1.70;;
59950;SDS011;45812;53.540;9.774;2024-01-07T14:31:24;1.50;;;1.40;;
59950;SDS011;45812;53.540;9.774;2024-01-07T14:33:49;3.85;;;1.95;;
59950;SDS011;45812;53.540;9.774;2024-01-07T14:36:15;1.77;;;1.67;;
59950;SDS011;45812;53.540;9.774;2024-01-07T14:38:44;1.52;;;1.23;;
59950;SDS011;45812;53.540;9.774;2024-01-07T14:41:11;3.75;;;2.47;;
59950;SDS011;45812;53.540;9.774;2024-01-07T14:43:36;2.13;;;1.50;;
59950;SDS011;45812;53.540;9.774;2024-01-07T14:46:02;1.48;;;1.38;;